Hlavní strana
METAR-TAF:

METAR-TAF

Letiště :

Asheville, Severní Karolína, Spojené státy americké

zeměpisná šířka: 35-25-55N, zeměpisná délka: 082-32-15W, výška: 660 m

Aktuální stav počasí

Zpráva byla vytvořena před 28 minutami, v 00:54 UTC
Bezvětří
Teplota 8°C
Vlhkost vzduchu 66%
Tlak 1027 hPa
Viditelnost: 16.1 km
Zataženo ve výšce 4300 ft

METAR: KAVL 080054Z 00000KT 10SM OVC043 08/02 A3032 RMK AO2 SLP270 T00830022

Čas: 20:22 (01:22 UTC)

Předpověď počasí

Zpráva byla vytvořena před 1 hodinou a 55 minutami, v 23:27 UTC
Předpověď platná od 08 v 00 UTC do 08 v 24 UTC
Jihovýchodní vítr 4 kt
Viditelnost: 10 km
Skoro jasno ve výšce 1500 ft
Oblačno až skoro zataženo ve výšce 4000 ft
Dočasný
od 08 v 09 UTC do 08 v 13 UTC
Oblačno až skoro zataženo ve výšce 1500 ft
Od 08 v 1500 UTC
Jihojihovýchodní vítr 6 kt
Viditelnost: 10 km
Polojasno ve výšce 4000 ft

TAF: KAVL 072327Z 0800/0824 14004KT P6SM FEW015 BKN040 TEMPO 0809/0813 BKN015 FM081500 16006KT P6SM SCT040

Stav a předpovědi počasí z více než 4 000 letišť (zprávy METAR a TAF).

Červené a žluté tečky na mapě představují dostupné meteorologické stanice.

Když kurzor umístíte na tečku, zobrazí se název stanice.

Pak kliknutím zobrazíte stav a předpověď počasí.

Chcete-li změnit mapu, kliknutím na zelené tlačítko se znaménkem +mapu přiblížíte, kliknutím na zelené tlačítko se znaménkem – mapu oddálíte a kliknutím na zelené šipky přejdete na sousední mapy.


METAR-TAF: